Time;durP1;ratioP1;P1;durP2;ratioP2;P2;SDS_P1;SDS_P2;PMS_P1;PMS_P2;Temp;Humidity;BMP_temperature;BMP_pressure;BME280_temperature;BME280_humidity;BME280_pressure;Samples;Min_cycle;Max_cycle;Signal;HPM_P1;HPM_P2
2021/07/21 00:00:36;;;;;;;23.77;19.83;;;;;;;22.16;58.08;96375.94;5042997;28;20072;-50
2021/07/21 00:03:02;;;;;;;21.02;18.88;;;;;;;22.16;58.26;96367.94;5045291;28;20029;-49
2021/07/21 00:05:27;;;;;;;23.58;19.67;;;;;;;22.16;58.02;96370.59;5041356;28;20029;-50
2021/07/21 00:07:56;;;;;;;21.38;19.08;;;;;;;22.15;58.21;96366.38;5027547;28;20037;-51
2021/07/21 00:10:23;;;;;;;21.35;19.15;;;;;;;22.16;58.39;96364.50;5027437;28;20779;-51
2021/07/21 00:15:35;;;;;;;21.10;18.80;;;;;;;22.14;58.27;96362.16;5027429;28;20043;-52
2021/07/21 00:18:04;;;;;;;22.67;20.27;;;;;;;22.14;57.98;96362.16;5046664;28;20167;-49
2021/07/21 00:20:31;;;;;;;20.88;18.65;;;;;;;22.13;58.06;96366.72;5048318;28;20504;-52
2021/07/21 00:22:56;;;;;;;21.58;18.98;;;;;;;22.13;58.32;96369.38;5048133;28;20508;-51
2021/07/21 00:25:22;;;;;;;20.33;18.23;;;;;;;22.12;58.08;96378.50;5047527;28;20037;-48
2021/07/21 00:27:47;;;;;;;20.83;18.45;;;;;;;22.12;57.97;96373.16;5047917;28;20043;-48
2021/07/21 00:30:14;;;;;;;22.30;19.98;;;;;;;22.11;58.27;96368.94;5047644;28;20040;-48
2021/07/21 00:32:40;;;;;;;22.58;20.13;;;;;;;22.12;57.94;96372.38;5047875;28;20108;-47
2021/07/21 00:35:07;;;;;;;21.13;18.83;;;;;;;22.12;58.17;96375.06;5047560;28;20029;-47
2021/07/21 00:37:32;;;;;;;21.85;19.23;;;;;;;22.11;58.00;96376.16;5047196;28;20037;-47
2021/07/21 00:39:57;;;;;;;22.05;19.52;;;;;;;22.11;58.17;96379.63;5027802;28;20040;-47
2021/07/21 00:42:23;;;;;;;22.95;19.70;;;;;;;22.10;58.04;96378.06;5027497;28;20033;-47
2021/07/21 00:44:48;;;;;;;21.85;19.52;;;;;;;22.10;58.09;96378.06;5027419;28;20041;-47
2021/07/21 00:47:14;;;;;;;21.15;18.98;;;;;;;22.10;58.09;96375.38;5027416;28;20043;-48
2021/07/21 00:49:40;;;;;;;21.70;18.77;;;;;;;22.09;57.99;96367.69;5027631;28;20029;-47
2021/07/21 00:52:08;;;;;;;20.35;18.23;;;;;;;22.09;57.94;96376.50;5026994;28;20037;-47
2021/07/21 00:54:34;;;;;;;23.38;19.38;;;;;;;22.08;57.75;96377.59;5027442;28;20029;-49
2021/07/21 00:57:00;;;;;;;21.70;19.20;;;;;;;22.09;57.77;96379.19;5027688;28;20502;-48
2021/07/21 00:59:26;;;;;;;22.40;19.50;;;;;;;22.07;57.97;96373.38;5026669;28;20041;-48
2021/07/21 01:01:51;;;;;;;20.85;18.45;;;;;;;22.07;57.76;96378.72;5025983;28;20481;-47
2021/07/21 01:04:17;;;;;;;21.30;17.83;;;;;;;22.07;57.93;96377.94;5027081;28;20026;-47
2021/07/21 01:06:42;;;;;;;20.73;18.25;;;;;;;22.06;57.92;96376.38;5027064;28;20030;-47
2021/07/21 01:09:08;;;;;;;21.42;19.17;;;;;;;22.05;57.71;96366.81;5026998;28;20788;-48
2021/07/21 01:11:52;;;;;;;20.77;17.98;;;;;;;22.05;57.93;96369.47;5027916;28;20033;-47
2021/07/21 01:14:45;;;;;;;20.58;18.23;;;;;;;22.05;57.54;96361.47;5027162;28;20037;-48
2021/07/21 01:17:17;;;;;;;20.23;17.73;;;;;;;22.04;57.92;96360.69;5040315;28;20021;-46
2021/07/21 01:20:04;;;;;;;21.63;18.30;;;;;;;22.03;57.57;96358.34;5047173;28;20025;-48
2021/07/21 01:22:30;;;;;;;21.48;17.65;;;;;;;22.02;57.66;96356.78;5047170;28;20032;-47
2021/07/21 01:25:15;;;;;;;20.30;17.98;;;;;;;22.02;57.76;96354.91;5046051;28;20033;-47
2021/07/21 01:27:56;;;;;;;20.25;18.02;;;;;;;22.03;57.88;96353.78;5046668;28;20052;-47
2021/07/21 01:30:27;;;;;;;20.67;18.48;;;;;;;22.02;57.76;96352.22;5049745;28;20055;-47
2021/07/21 01:33:12;;;;;;;20.52;18.35;;;;;;;22.03;57.97;96355.66;5033303;28;20488;-47
2021/07/21 01:35:42;;;;;;;20.98;18.42;;;;;;;22.03;58.12;96355.66;5050873;28;20500;-48
2021/07/21 01:38:10;;;;;;;19.40;17.38;;;;;;;22.03;58.00;96359.13;5049357;28;20041;-48
2021/07/21 01:40:40;;;;;;;20.38;18.33;;;;;;;22.02;57.97;96354.13;5049744;28;20025;-47
2021/07/21 01:43:07;;;;;;;20.02;17.80;;;;;;;22.03;57.75;96355.66;5049414;28;20163;-47
2021/07/21 01:45:32;;;;;;;19.60;17.52;;;;;;;22.01;57.98;96356.00;5049708;28;20116;-48
2021/07/21 01:47:58;;;;;;;20.85;17.75;;;;;;;22.03;58.08;96358.34;5039953;28;20552;-52
2021/07/21 01:50:24;;;;;;;19.77;17.67;;;;;;;22.03;58.33;96355.66;5048016;28;20511;-47
2021/07/21 01:52:51;;;;;;;19.40;17.50;;;;;;;22.02;58.30;96354.91;5032323;28;20025;-48
2021/07/21 01:55:17;;;;;;;19.42;17.48;;;;;;;22.03;58.30;96361.00;5049135;28;20768;-47
2021/07/21 01:57:43;;;;;;;20.00;17.90;;;;;;;22.01;58.20;96369.34;5049410;28;20032;-47
2021/07/21 02:00:10;;;;;;;19.20;17.20;;;;;;;22.01;58.23;96364.00;5050336;28;20033;-48
2021/07/21 02:02:36;;;;;;;20.02;17.92;;;;;;;22.02;58.35;96359.47;5050885;28;20037;-49
2021/07/21 02:05:01;;;;;;;19.67;17.67;;;;;;;22.01;58.15;96364.00;5048858;28;20567;-48
2021/07/21 02:07:26;;;;;;;18.83;16.92;;;;;;;22.02;58.51;96368.25;5050214;28;20041;-49
2021/07/21 02:09:52;;;;;;;18.25;16.15;;;;;;;22.02;58.24;96372.81;5032524;28;20029;-50
2021/07/21 02:12:17;;;;;;;18.67;16.77;;;;;;;22.01;58.58;96372.00;5015652;28;20040;-48
2021/07/21 02:14:43;;;;;;;18.45;16.65;;;;;;;22.00;58.50;96381.16;5050252;28;20063;-49
2021/07/21 02:17:09;;;;;;;18.23;16.30;;;;;;;22.00;58.44;96373.16;5049843;28;20036;-48
2021/07/21 02:19:34;;;;;;;18.67;16.70;;;;;;;22.00;58.39;96377.72;5048883;28;20069;-50
2021/07/21 02:22:00;;;;;;;19.33;17.30;;;;;;;22.00;58.42;96377.72;5032790;28;20090;-47
2021/07/21 02:24:27;;;;;;;18.83;16.83;;;;;;;21.99;58.58;96371.56;5050153;28;20040;-48
2021/07/21 02:26:53;;;;;;;16.85;15.15;;;;;;;21.99;58.34;96376.91;5048566;28;20041;-47
2021/07/21 02:29:19;;;;;;;18.75;16.35;;;;;;;21.99;58.65;96384.94;5049688;28;20477;-49
2021/07/21 02:32:32;;;;;;;17.70;15.88;;;;;;;21.99;58.41;96382.25;5048638;28;20576;-49
2021/07/21 02:34:58;;;;;;;18.27;16.38;;;;;;;21.98;58.50;96388.72;5049204;28;20029;-49
2021/07/21 02:37:23;;;;;;;17.92;16.05;;;;;;;21.98;58.67;96380.72;5049963;28;20036;-48
2021/07/21 02:39:50;;;;;;;21.30;16.88;;;;;;;21.98;58.81;96375.38;5049320;28;20013;-48
2021/07/21 02:42:16;;;;;;;18.02;15.98;;;;;;;21.98;58.51;96379.94;5049837;28;20032;-50
2021/07/21 02:44:42;;;;;;;17.90;16.00;;;;;;;21.97;58.42;96376.47;5049700;28;20021;-48
2021/07/21 02:47:08;;;;;;;18.08;16.20;;;;;;;21.97;58.82;96391.72;5049263;28;20029;-49
2021/07/21 02:49:34;;;;;;;18.10;16.30;;;;;;;21.96;58.72;96388.28;5049843;28;20032;-48
2021/07/21 02:52:19;;;;;;;18.02;16.13;;;;;;;21.96;58.78;96390.94;5048622;28;20025;-51
2021/07/21 02:55:15;;;;;;;17.52;15.73;;;;;;;21.96;58.60;96382.94;5048933;28;20147;-50
2021/07/21 02:57:46;;;;;;;17.40;15.60;;;;;;;21.96;58.52;96382.16;5049699;28;20029;-51
2021/07/21 03:00:16;;;;;;;19.58;16.10;;;;;;;21.95;58.75;96392.03;5048209;28;20037;-51
2021/07/21 03:02:41;;;;;;;17.05;15.35;;;;;;;21.94;58.76;96393.16;5049404;28;20103;-50
2021/07/21 03:05:08;;;;;;;18.00;15.57;;;;;;;21.94;58.73;96388.59;5048109;28;20060;-49
2021/07/21 03:07:36;;;;;;;18.88;15.85;;;;;;;21.94;58.67;96390.50;5049241;28;20202;-51
2021/07/21 03:10:02;;;;;;;16.52;14.82;;;;;;;21.93;58.62;96394.25;5030960;28;20527;-52
2021/07/21 03:12:27;;;;;;;16.17;14.48;;;;;;;21.93;58.80;96388.91;5049274;28;20029;-52
2021/07/21 03:14:54;;;;;;;17.45;15.10;;;;;;;21.93;58.49;96395.06;5047961;28;20106;-53
2021/07/21 03:17:19;;;;;;;16.95;15.18;;;;;;;21.92;58.80;96398.06;5047887;28;20028;-47
2021/07/21 03:19:48;;;;;;;17.52;15.73;;;;;;;21.93;58.59;96400.41;5031301;28;20374;-48
2021/07/21 03:22:14;;;;;;;16.00;14.35;;;;;;;21.92;58.61;96400.72;5031044;28;20036;-47
2021/07/21 03:24:41;;;;;;;15.48;13.95;;;;;;;21.91;58.59;96394.63;5047627;28;20094;-48
2021/07/21 03:27:07;;;;;;;16.90;15.15;;;;;;;21.91;58.78;96391.13;5031165;28;20078;-48
2021/07/21 03:29:32;;;;;;;16.30;14.60;;;;;;;21.91;58.61;96399.97;5047652;28;20025;-47
2021/07/21 03:31:57;;;;;;;16.75;15.07;;;;;;;21.91;58.83;96391.94;5049042;28;20032;-47
2021/07/21 03:34:23;;;;;;;17.70;14.75;;;;;;;21.91;58.68;96393.81;5048583;28;20668;-47
2021/07/21 03:36:49;;;;;;;16.92;15.13;;;;;;;21.91;58.79;96385.81;5047436;28;20029;-48
2021/07/21 03:39:15;;;;;;;15.82;14.13;;;;;;;21.90;58.66;96395.72;5048292;28;20033;-49
2021/07/21 03:41:40;;;;;;;17.50;14.25;;;;;;;21.89;58.98;96394.16;5030632;28;20071;-49
2021/07/21 03:44:07;;;;;;;16.15;14.52;;;;;;;21.90;58.93;96394.94;5047078;28;20029;-47
2021/07/21 03:46:33;;;;;;;16.75;14.30;;;;;;;21.89;58.87;96396.84;5048679;28;20025;-47
2021/07/21 03:49:00;;;;;;;16.70;14.82;;;;;;;21.89;58.85;96398.69;5031027;28;20033;-47
2021/07/21 03:51:30;;;;;;;17.42;14.65;;;;;;;21.89;58.80;96404.03;5047607;28;20033;-48
2021/07/21 03:53:55;;;;;;;16.50;14.73;;;;;;;21.88;58.87;96408.63;5047382;28;20503;-47
2021/07/21 03:56:21;;;;;;;18.23;14.80;;;;;;;21.88;58.82;96403.28;5046644;28;20103;-47
2021/07/21 03:58:46;;;;;;;17.67;15.40;;;;;;;21.87;58.69;96412.41;5030540;28;20025;-48
2021/07/21 04:01:12;;;;;;;16.02;14.43;;;;;;;21.86;58.85;96408.16;5043075;28;20029;-47
2021/07/21 04:03:38;;;;;;;15.63;13.70;;;;;;;21.87;58.58;96417.75;5037173;28;20036;-47
2021/07/21 04:06:03;;;;;;;16.70;15.05;;;;;;;21.86;58.76;96418.06;5046412;28;20025;-47
2021/07/21 04:08:29;;;;;;;15.55;13.80;;;;;;;21.88;58.59;96418.53;5048051;28;20040;-48
2021/07/21 04:10:55;;;;;;;14.93;13.43;;;;;;;21.86;58.65;96415.41;5047370;28;20029;-47
2021/07/21 04:13:20;;;;;;;16.15;14.48;;;;;;;21.85;58.66;96419.16;5044536;28;20540;-48
2021/07/21 04:15:46;;;;;;;15.07;13.63;;;;;;;21.86;58.63;96420.75;5046393;28;20021;-47
2021/07/21 04:18:12;;;;;;;15.70;14.15;;;;;;;21.85;58.91;96413.81;5031425;28;20607;-48
2021/07/21 04:20:37;;;;;;;15.25;13.65;;;;;;;21.85;58.76;96413.81;5026306;28;20029;-47
2021/07/21 04:23:03;;;;;;;17.15;13.18;;;;;;;21.84;58.80;96412.28;5027763;28;20465;-47
2021/07/21 04:25:28;;;;;;;14.85;13.25;;;;;;;21.84;58.61;96420.28;5026909;28;20041;-47
2021/07/21 04:27:54;;;;;;;14.60;13.05;;;;;;;21.84;58.66;96426.41;5026344;28;20401;-48
2021/07/21 04:30:19;;;;;;;16.40;13.75;;;;;;;21.83;58.53;96432.88;5026040;28;20033;-47
2021/07/21 04:32:44;;;;;;;14.23;12.77;;;;;;;21.84;58.72;96425.63;5027209;28;20021;-47
2021/07/21 04:35:11;;;;;;;15.38;13.45;;;;;;;21.84;58.78;96428.31;5025891;28;20033;-47
2021/07/21 04:37:38;;;;;;;14.68;13.18;;;;;;;21.83;58.70;96434.72;5032103;28;20044;-48
2021/07/21 04:40:04;;;;;;;14.95;13.40;;;;;;;21.83;58.72;96432.06;5045752;28;20045;-47
2021/07/21 04:42:30;;;;;;;13.85;12.45;;;;;;;21.82;58.58;96425.94;5047316;28;20021;-47
2021/07/21 04:44:56;;;;;;;15.38;13.77;;;;;;;21.82;58.76;96427.84;5041133;28;20066;-48
2021/07/21 04:47:22;;;;;;;14.75;13.25;;;;;;;21.82;58.48;96436.63;5035656;28;20036;-48
2021/07/21 04:49:47;;;;;;;13.68;12.27;;;;;;;21.82;58.30;96436.63;5025795;28;20040;-53
2021/07/21 04:52:14;;;;;;;14.13;12.68;;;;;;;21.82;58.54;96438.53;5040390;28;20031;-48
2021/07/21 04:54:40;;;;;;;15.07;13.55;;;;;;;21.81;58.66;96439.63;5046918;28;20032;-47
2021/07/21 04:57:05;;;;;;;15.35;12.32;;;;;;;21.81;58.33;96440.44;5046811;28;20029;-47
2021/07/21 04:59:31;;;;;;;14.63;12.95;;;;;;;21.81;58.50;96440.44;5046913;28;20024;-48
2021/07/21 05:01:56;;;;;;;14.73;12.60;;;;;;;21.81;57.95;96444.97;5047317;28;20063;-47
2021/07/21 05:04:22;;;;;;;13.48;12.07;;;;;;;21.81;58.47;96448.44;5046754;28;20017;-47
2021/07/21 05:06:48;;;;;;;13.80;12.40;;;;;;;21.80;58.62;96446.84;5045308;28;20465;-47
2021/07/21 05:09:13;;;;;;;14.70;13.23;;;;;;;21.81;58.33;96447.63;5046853;28;20599;-48
2021/07/21 05:11:39;;;;;;;14.10;12.70;;;;;;;21.80;58.28;96446.84;5046560;28;20016;-49
2021/07/21 05:14:05;;;;;;;14.57;13.18;;;;;;;21.79;58.27;96450.63;5046537;28;20036;-49
2021/07/21 05:16:31;;;;;;;13.95;12.48;;;;;;;21.80;58.50;96446.84;5043553;28;20111;-53
2021/07/21 05:18:57;;;;;;;15.52;12.68;;;;;;;21.79;58.27;96445.28;5026982;28;20057;-47
2021/07/21 05:21:23;;;;;;;14.20;12.80;;;;;;;21.79;58.29;96452.53;5026727;28;20022;-48
2021/07/21 05:23:49;;;;;;;13.70;12.30;;;;;;;21.79;58.55;96455.97;5026704;28;20017;-48
2021/07/21 05:26:14;;;;;;;13.63;12.23;;;;;;;21.79;58.35;96458.63;5026673;28;20071;-48
2021/07/21 05:28:40;;;;;;;14.00;12.50;;;;;;;21.78;58.13;96446.41;5026775;28;20059;-50
2021/07/21 05:31:06;;;;;;;13.30;11.90;;;;;;;21.78;58.53;96451.75;5026648;28;20029;-48
2021/07/21 05:33:31;;;;;;;21.83;13.45;;;;;;;21.78;57.96;96456.31;5026283;28;20022;-48
2021/07/21 05:35:57;;;;;;;17.60;13.73;;;;;;;21.72;57.20;96448.50;5027030;28;20453;-51
2021/07/21 05:38:23;;;;;;;16.60;13.88;;;;;;;21.64;56.63;96461.94;5032304;28;20025;-51
2021/07/21 05:40:48;;;;;;;18.52;14.38;;;;;;;21.52;56.24;96459.97;5046799;28;20041;-48
2021/07/21 05:43:14;;;;;;;17.30;14.10;;;;;;;21.43;55.57;96459.25;5030079;28;20514;-48
2021/07/21 05:45:39;;;;;;;18.05;14.07;;;;;;;21.37;55.80;96457.84;5015423;28;20037;-49
2021/07/21 05:48:04;;;;;;;17.10;13.85;;;;;;;21.33;56.20;96471.09;5029449;28;20044;-47
2021/07/21 05:50:30;;;;;;;18.38;14.40;;;;;;;21.30;56.29;96471.72;5043301;28;20114;-48
2021/07/21 05:52:57;;;;;;;18.40;13.63;;;;;;;21.25;56.12;96467.38;5046205;28;20097;-48
2021/07/21 05:55:22;;;;;;;16.52;14.20;;;;;;;21.21;56.18;96462.97;5044509;28;20025;-51
2021/07/21 07:58:43;;;;;;;21.50;13.52;;;;;;;32.53;35.10;98989.41;5042906;27;20398;-49
2021/07/21 08:01:09;;;;;;;24.65;13.18;;;;;;;35.30;30.65;98986.72;5027682;28;20131;-49
2021/07/21 08:16:02;;;;;;;21.45;14.10;;;;;;;36.86;26.36;98991.81;4978873;27;20434;-51
2021/07/21 08:18:28;;;;;;;15.50;13.77;;;;;;;37.84;24.63;98989.16;5046495;28;20037;-50
2021/07/21 08:20:53;;;;;;;18.33;14.45;;;;;;;38.31;23.67;98982.16;5049094;28;20025;-50
2021/07/21 08:23:19;;;;;;;18.42;12.63;;;;;;;38.87;22.95;98989.22;5064258;28;20033;-50
2021/07/21 08:25:45;;;;;;;13.70;12.45;;;;;;;39.65;21.53;98987.25;5047902;28;20518;-53
2021/07/21 08:28:14;;;;;;;18.85;12.68;;;;;;;40.19;21.11;98988.13;5048980;28;20082;-53
2021/07/21 08:30:41;;;;;;;13.55;12.13;;;;;;;40.64;20.79;98985.72;5047634;28;20026;-53
2021/07/21 08:33:07;;;;;;;17.83;13.63;;;;;;;40.53;20.56;98990.47;5064206;28;20025;-53
2021/07/21 08:35:33;;;;;;;17.35;12.63;;;;;;;40.17;21.14;98993.22;5064084;28;20032;-53
2021/07/21 08:37:59;;;;;;;15.73;13.15;;;;;;;39.90;21.69;98992.78;5047444;28;20025;-53
2021/07/21 08:40:25;;;;;;;17.45;14.13;;;;;;;39.65;21.83;98993.50;5047407;28;20029;-52
2021/07/21 08:42:51;;;;;;;23.65;13.57;;;;;;;39.33;22.02;98991.41;5064035;28;20554;-52
2021/07/21 08:45:17;;;;;;;82.03;30.67;;;;;;;39.16;22.93;98994.91;5048577;28;20495;-53
2021/07/21 08:47:43;;;;;;;46.67;20.70;;;;;;;39.42;22.04;98988.34;5048652;28;20021;-52
2021/07/21 08:50:09;;;;;;;23.08;17.63;;;;;;;39.36;22.13;98995.34;5047348;28;20472;-53
2021/07/21 08:52:35;;;;;;;82.25;27.63;;;;;;;38.89;22.38;99000.59;5047266;28;20036;-52
2021/07/21 08:55:02;;;;;;;36.65;14.75;;;;;;;38.40;22.84;98998.28;5063785;28;20025;-53
2021/07/21 08:57:30;;;;;;;31.45;14.10;;;;;;;38.29;23.42;98989.97;5047103;28;20510;-53
2021/07/21 08:59:57;;;;;;;19.17;14.43;;;;;;;38.53;22.77;98997.63;5047447;28;20025;-52
2021/07/21 09:02:23;;;;;;;27.40;14.82;;;;;;;38.48;22.34;98997.19;5047025;28;20029;-53
2021/07/21 09:04:49;;;;;;;20.38;13.48;;;;;;;37.56;23.77;98996.66;5048609;28;20450;-52
2021/07/21 09:07:15;;;;;;;24.50;13.80;;;;;;;36.96;24.70;98996.66;5048258;28;20156;-52
2021/07/21 09:09:40;;;;;;;18.50;14.27;;;;;;;36.89;25.13;98996.56;5048191;28;20063;-53
2021/07/21 09:12:08;;;;;;;18.73;14.05;;;;;;;36.92;24.58;98998.56;5046964;28;20026;-53
2021/07/21 09:14:38;;;;;;;36.03;13.20;;;;;;;36.92;24.72;98998.56;5047923;28;20060;-53
2021/07/21 09:17:11;;;;;;;23.58;13.93;;;;;;;36.82;24.93;99002.72;5048102;28;20024;-52
2021/07/21 09:19:47;;;;;;;16.65;14.02;;;;;;;37.12;24.97;98999.25;5048037;28;20106;-52
2021/07/21 09:22:19;;;;;;;15.05;13.25;;;;;;;37.38;24.71;99012.88;5048022;28;20037;-52
2021/07/21 09:25:17;;;;;;;21.23;13.65;;;;;;;37.53;24.44;99002.88;5048023;28;20048;-52
2021/07/21 09:27:45;;;;;;;58.65;16.08;;;;;;;37.91;23.91;98995.50;5034340;28;20025;-53
2021/07/21 09:30:17;;;;;;;20.00;13.82;;;;;;;38.61;23.23;99000.41;5033245;28;20116;-52
2021/07/21 09:33:03;;;;;;;19.42;14.43;;;;;;;39.30;23.01;98997.69;5034559;28;20068;-52
2021/07/21 09:35:38;;;;;;;19.45;14.35;;;;;;;39.63;21.91;99000.56;5034417;28;20036;-52
2021/07/21 09:38:10;;;;;;;22.40;13.82;;;;;;;40.26;21.48;98998.31;5034375;28;20029;-53
2021/07/21 09:40:38;;;;;;;21.77;13.02;;;;;;;40.84;21.44;98999.09;5034375;28;20496;-53
2021/07/21 09:43:17;;;;;;;65.20;16.08;;;;;;;40.96;21.16;99001.41;5033001;28;20058;-53
2021/07/21 09:45:44;;;;;;;47.58;14.23;;;;;;;41.31;20.64;99000.53;5034304;28;20057;-53
2021/07/21 09:48:12;;;;;;;19.15;13.65;;;;;;;41.76;19.97;98994.41;5034213;28;20021;-53
2021/07/21 09:50:42;;;;;;;19.83;13.15;;;;;;;42.17;19.82;98990.19;5034410;28;20045;-51
2021/07/21 09:53:12;;;;;;;29.10;13.07;;;;;;;42.43;19.71;98988.78;5032827;28;20026;-53
2021/07/21 09:55:40;;;;;;;67.18;21.08;;;;;;;42.33;19.55;98989.66;5034271;28;20376;-53
2021/07/21 09:58:18;;;;;;;37.95;18.05;;;;;;;41.23;20.35;98982.47;5034055;28;20025;-53
2021/07/21 10:00:47;;;;;;;27.73;13.65;;;;;;;41.02;20.45;98991.56;5033929;28;20037;-53
2021/07/21 10:03:19;;;;;;;22.23;14.50;;;;;;;41.26;20.46;98991.91;5033931;28;20036;-53
2021/07/21 10:05:57;;;;;;;20.38;13.65;;;;;;;41.22;20.34;98986.41;5033874;28;20033;-53
2021/07/21 10:08:44;;;;;;;26.58;15.07;;;;;;;40.82;20.96;98984.94;5033817;28;20033;-52
2021/07/21 10:11:27;;;;;;;20.00;15.10;;;;;;;40.83;20.84;98984.56;5032468;28;20117;-52
2021/07/21 10:14:08;;;;;;;21.23;14.63;;;;;;;41.12;20.24;98987.97;5033370;28;20518;-52
2021/07/21 10:16:37;;;;;;;17.48;14.05;;;;;;;41.16;19.88;98981.69;5033711;28;20040;-53
2021/07/21 10:19:06;;;;;;;25.63;15.18;;;;;;;41.09;20.11;98988.78;5033929;28;20041;-53
2021/07/21 10:21:32;;;;;;;20.77;15.23;;;;;;;41.04;19.94;98991.16;5033583;28;20025;-53
2021/07/21 10:23:58;;;;;;;15.88;14.27;;;;;;;40.99;19.92;98992.38;5033795;28;20063;-53
2021/07/21 10:26:27;;;;;;;18.42;14.15;;;;;;;40.78;20.16;98986.91;5048795;28;20021;-53
2021/07/21 10:28:58;;;;;;;18.52;14.05;;;;;;;40.57;20.44;98994.00;5033442;28;20037;-53
2021/07/21 10:31:24;;;;;;;17.77;14.32;;;;;;;40.69;20.74;98990.84;5033381;28;20411;-52
2021/07/21 10:33:51;;;;;;;16.92;14.68;;;;;;;40.69;20.56;98990.03;5033307;28;20059;-53
2021/07/21 10:36:18;;;;;;;16.70;14.80;;;;;;;40.70;20.46;98994.38;5048580;28;20034;-52
2021/07/21 10:38:45;;;;;;;19.73;16.05;;;;;;;40.69;20.29;98993.59;5032190;28;20056;-53
2021/07/21 10:41:13;;;;;;;17.48;15.05;;;;;;;41.04;19.85;98985.66;5033362;28;20484;-53
2021/07/21 10:43:44;;;;;;;22.48;14.57;;;;;;;41.57;19.40;98989.38;5033184;28;20024;-52
2021/07/21 10:46:34;;;;;;;16.92;14.85;;;;;;;41.94;19.47;98987.97;5033148;28;20043;-52
2021/07/21 11:00:42;;;;;;;17.17;15.43;;;;;;;41.88;19.54;98985.66;5033098;28;20040;-53
2021/07/21 11:03:31;;;;;;;21.20;14.40;;;;;;;41.71;20.04;98984.56;5032796;28;20026;-52
2021/07/21 11:06:07;;;;;;;21.90;15.82;;;;;;;41.92;19.48;98971.84;5032725;28;20021;-53
2021/07/21 11:08:45;;;;;;;19.90;14.77;;;;;;;42.22;19.19;98971.25;5047825;28;20052;-53
2021/07/21 11:11:18;;;;;;;22.40;15.05;;;;;;;42.34;19.41;98969.97;5032667;28;20021;-53
2021/07/21 11:13:43;;;;;;;;;;;;;;;42.32;19.94;98972.34;5032799;28;20670;-53
2021/07/21 11:16:51;;;;;;;15.82;14.15;;;;;;;42.07;18.61;98965.03;5032621;28;20000;-53
2021/07/21 11:19:31;;;;;;;31.63;16.70;;;;;;;41.80;18.66;98962.09;5023212;28;20042;-52
2021/07/21 11:22:24;;;;;;;21.77;15.63;;;;;;;40.92;19.96;98964.84;5032575;28;20060;-52
2021/07/21 11:25:14;;;;;;;18.90;14.47;;;;;;;40.03;21.53;98969.25;5032435;28;20406;-52
2021/07/21 11:27:42;;;;;;;20.67;15.43;;;;;;;40.00;21.61;98961.00;5032395;28;20525;-53
2021/07/21 11:30:41;;;;;;;17.50;15.68;;;;;;;40.21;21.66;98957.47;5032277;28;20026;-52
2021/07/21 11:33:49;;;;;;;21.48;15.45;;;;;;;40.44;21.69;98955.09;5032204;28;20061;-52
2021/07/21 11:36:49;;;;;;;16.30;14.60;;;;;;;40.39;21.22;98960.22;5032208;28;20060;-52
2021/07/21 11:39:53;;;;;;;18.38;15.10;;;;;;;40.11;21.79;98948.06;5032171;28;20029;-52
2021/07/21 11:42:40;;;;;;;16.35;14.77;;;;;;;39.93;21.57;98951.56;5032446;28;20056;-52
2021/07/21 11:45:06;;;;;;;17.65;15.85;;;;;;;40.28;21.02;98949.97;5032345;28;20052;-52
2021/07/21 11:47:56;;;;;;;29.58;18.38;;;;;;;40.73;20.74;98944.06;5032003;28;20523;-53
2021/07/21 11:50:33;;;;;;;17.08;15.55;;;;;;;40.79;20.37;98930.69;5031741;28;20025;-52
2021/07/21 11:53:06;;;;;;;16.10;14.55;;;;;;;39.79;21.23;98937.78;5047331;28;20030;-52
2021/07/21 11:55:34;;;;;;;17.35;15.57;;;;;;;39.00;22.12;98940.31;5031839;28;20554;-53
2021/07/21 11:58:11;;;;;;;17.00;14.98;;;;;;;38.48;22.67;98943.09;5031882;28;20052;-53
2021/07/21 12:00:37;;;;;;;19.27;16.08;;;;;;;37.88;23.71;98944.16;5032120;28;20091;-52
2021/07/21 12:03:08;;;;;;;19.42;15.55;;;;;;;38.01;23.21;98932.91;5031871;28;20491;-53
2021/07/21 12:05:34;;;;;;;19.10;16.52;;;;;;;38.40;22.99;98938.75;5031800;28;20079;-52
2021/07/21 12:08:04;;;;;;;16.77;14.73;;;;;;;38.71;23.11;98934.63;5030519;28;20029;-53
2021/07/21 12:10:32;;;;;;;18.20;14.73;;;;;;;39.13;22.26;98935.25;5046760;28;20025;-52
2021/07/21 12:13:07;;;;;;;19.20;15.15;;;;;;;39.38;21.75;98934.53;5031711;28;20071;-52
2021/07/21 12:15:33;;;;;;;18.30;15.35;;;;;;;38.94;22.29;98922.63;5046771;28;20056;-53
2021/07/21 12:18:10;;;;;;;18.60;14.98;;;;;;;38.76;22.88;98920.56;5031756;28;20021;-53
2021/07/21 12:20:36;;;;;;;19.55;15.00;;;;;;;39.08;23.01;98928.19;5047016;28;20095;-52
2021/07/21 12:23:02;;;;;;;17.15;14.48;;;;;;;39.23;22.43;98922.75;5030507;28;20017;-52
2021/07/21 12:25:31;;;;;;;15.52;13.93;;;;;;;39.48;21.92;98929.13;5047224;28;20090;-52
2021/07/21 12:27:58;;;;;;;17.00;15.20;;;;;;;39.73;21.77;98918.16;5046874;28;20537;-52
2021/07/21 12:30:25;;;;;;;16.55;14.88;;;;;;;39.86;21.62;98917.75;5031548;28;20032;-52
2021/07/21 12:32:51;;;;;;;16.92;14.82;;;;;;;39.98;20.87;98922.13;5031616;28;20071;-53
2021/07/21 12:35:22;;;;;;;22.77;16.50;;;;;;;39.70;21.28;98920.91;5030150;28;20061;-52
2021/07/21 12:37:51;;;;;;;18.73;15.13;;;;;;;39.62;20.88;98919.31;5031591;28;20148;-53
2021/07/21 12:40:22;;;;;;;19.42;15.77;;;;;;;39.80;20.47;98916.59;5031497;28;20022;-52
2021/07/21 12:42:50;;;;;;;16.20;14.50;;;;;;;39.70;20.99;98920.91;5031904;28;20057;-52
2021/07/21 12:45:19;;;;;;;20.67;15.63;;;;;;;39.30;21.46;98922.75;5031476;28;20044;-52
2021/07/21 12:47:47;;;;;;;17.75;15.45;;;;;;;38.81;22.06;98911.16;5046820;28;20494;-53
2021/07/21 12:50:15;;;;;;;17.25;15.45;;;;;;;38.32;22.00;98915.97;5046769;28;20403;-52
2021/07/21 12:52:45;;;;;;;18.58;16.13;;;;;;;38.01;22.98;98916.47;5031509;28;20026;-53
2021/07/21 12:55:39;;;;;;;20.65;16.50;;;;;;;38.27;22.14;98913.56;5031306;28;20112;-52
2021/07/21 12:58:11;;;;;;;17.33;15.07;;;;;;;38.71;22.03;98909.94;5031140;28;20073;-53
2021/07/21 13:00:48;;;;;;;29.63;16.38;;;;;;;38.83;22.24;98910.78;5031821;28;20086;-53
2021/07/21 13:03:15;;;;;;;16.40;14.68;;;;;;;38.81;21.70;98902.94;5035107;28;20033;-53
2021/07/21 13:05:47;;;;;;;17.73;14.80;;;;;;;38.81;21.35;98905.69;5035110;28;20033;-53
2021/07/21 13:08:18;;;;;;;17.05;15.27;;;;;;;38.42;21.57;98902.72;5035015;28;20036;-53
2021/07/21 13:10:46;;;;;;;19.63;15.18;;;;;;;38.43;21.72;98901.53;5034961;28;20552;-52
2021/07/21 13:13:25;;;;;;;17.17;14.90;;;;;;;38.53;20.94;98909.84;5034980;28;20017;-53
2021/07/21 13:16:06;;;;;;;21.63;15.88;;;;;;;38.28;21.61;98897.94;5034676;28;20136;-53
2021/07/21 13:18:34;;;;;;;18.08;15.35;;;;;;;37.89;22.14;98898.38;5034816;28;20542;-52
2021/07/21 13:21:18;;;;;;;17.40;15.48;;;;;;;37.61;22.72;98893.44;5034711;28;20025;-52
2021/07/21 13:23:43;;;;;;;20.15;17.48;;;;;;;37.05;23.50;98903.34;5034785;28;20029;-52
2021/07/21 13:26:10;;;;;;;22.83;16.85;;;;;;;36.70;23.99;98897.03;5034871;28;20042;-52
2021/07/21 13:28:57;;;;;;;17.25;15.55;;;;;;;36.43;24.21;98899.00;5049973;28;20025;-52
2021/07/21 13:31:27;;;;;;;23.10;16.45;;;;;;;36.09;24.31;98889.88;5049742;28;20152;-53
2021/07/21 13:33:55;;;;;;;17.88;14.70;;;;;;;35.74;24.72;98896.31;5034700;28;20033;-53
2021/07/21 13:36:24;;;;;;;18.08;14.70;;;;;;;35.78;24.42;98897.19;5034480;28;20034;-51
2021/07/21 13:39:04;;;;;;;17.73;14.55;;;;;;;35.74;23.78;98896.31;5034389;28;20033;-50
2021/07/21 13:41:31;;;;;;;17.98;15.52;;;;;;;35.77;23.80;98895.59;5034448;28;20487;-50
2021/07/21 13:43:59;;;;;;;18.60;15.32;;;;;;;35.70;23.93;98887.25;5049646;28;20033;-50
2021/07/21 13:46:32;;;;;;;16.60;14.18;;;;;;;35.77;23.29;98890.91;5034230;28;20100;-50
2021/07/21 13:49:07;;;;;;;16.47;14.80;;;;;;;35.75;23.30;98893.22;5033259;28;20183;-50
2021/07/21 13:51:40;;;;;;;18.75;16.65;;;;;;;35.65;23.71;98885.59;5034494;28;20056;-50
2021/07/21 13:54:21;;;;;;;25.63;17.02;;;;;;;35.53;24.73;98883.03;5034014;28;20053;-50
2021/07/21 13:56:56;;;;;;;20.00;15.85;;;;;;;35.31;25.09;98882.63;5034141;28;20049;-50